North Franklin, New York
Current Conditions -  °F | °C
As of 8:15 AM on Friday 24 Oct 2014 (Local Time) from KNY0 Reporting Station
Overcast Overcast  
Wind Chill: 39°   Ceiling: 2300
Heat Index: 42°   Visibility: 10mi
Dew Point: 41°   Wind: 6mph
Humidity: 96%   Direction: 270°W
Pressure: 29.85"   Gusts: NA
Location:  42.4787°N, 75.0181°W
Report Text: KNY0 241215Z AUTO 27005KT 10SM OVC023 06/05 A2985 RMK AO2 T00580052
Loading
Personal Weather Stations






























Interactive Weather Map
Tropical Storm Tracking
New forecast layout! Learn more

10-Day Weather Forecast

Advertisements
Track Severe Weather on mobile